Time;durP1;ratioP1;P1;durP2;ratioP2;P2;SDS_P1;SDS_P2;PMS_P1;PMS_P2;Temp;Humidity;BMP_temperature;BMP_pressure;BME280_temperature;BME280_humidity;BME280_pressure;Samples;Min_cycle;Max_cycle;Signal;HPM_P1;HPM_P2
2021/08/18 00:01:49;;;;;;;30.25;15.70;;;25.20;44.40;;;;;;4349430;32;20074;-72
2021/08/18 00:04:15;;;;;;;29.08;14.60;;;25.20;45.10;;;;;;4325681;32;20111;-73
2021/08/18 00:06:41;;;;;;;28.02;15.65;;;25.20;45.70;;;;;;4337556;32;20081;-73
2021/08/18 00:09:07;;;;;;;29.17;15.70;;;25.20;46.30;;;;;;4361855;32;20074;-72
2021/08/18 00:11:34;;;;;;;29.70;15.40;;;25.20;46.80;;;;;;4325304;32;20083;-72
2021/08/18 00:14:00;;;;;;;32.80;14.98;;;25.10;49.10;;;;;;4337482;32;20071;-72
2021/08/18 00:16:26;;;;;;;24.85;13.90;;;25.00;52.10;;;;;;4325116;32;20155;-73
2021/08/18 00:18:53;;;;;;;25.37;14.25;;;25.00;55.60;;;;;;4349899;32;20437;-73
2021/08/18 00:21:24;;;;;;;25.65;14.38;;;24.90;56.90;;;;;;4337284;32;20066;-73
2021/08/18 00:23:50;;;;;;;23.85;13.75;;;24.80;58.00;;;;;;4349679;32;20151;-72
2021/08/18 00:26:17;;;;;;;29.77;14.55;;;24.80;58.40;;;;;;4324866;32;20155;-72
2021/08/18 00:28:43;;;;;;;28.08;14.45;;;24.80;58.80;;;;;;4324907;32;20090;-74
2021/08/18 00:31:14;;;;;;;28.65;14.70;;;24.80;62.10;;;;;;4363031;32;20085;-72
2021/08/18 00:33:40;;;;;;;28.45;13.70;;;24.70;64.30;;;;;;4337122;32;20105;-73
2021/08/18 00:36:06;;;;;;;29.35;12.93;;;24.80;65.40;;;;;;4337089;32;20090;-73
2021/08/18 00:38:33;;;;;;;22.98;13.50;;;24.80;65.80;;;;;;4349196;32;20223;-72
2021/08/18 00:40:59;;;;;;;25.55;13.25;;;24.80;66.70;;;;;;4349238;32;20086;-73
2021/08/18 00:43:25;;;;;;;28.08;14.55;;;24.70;69.10;;;;;;4324501;32;20157;-72
2021/08/18 00:45:51;;;;;;;29.70;14.65;;;24.60;69.90;;;;;;4324526;32;20093;-72
2021/08/18 00:48:17;;;;;;;31.12;13.45;;;24.60;70.90;;;;;;4359250;32;20097;-72
2021/08/18 00:50:44;;;;;;;28.02;14.30;;;24.60;71.20;;;;;;4351752;32;20073;-72
2021/08/18 00:53:10;;;;;;;26.17;14.10;;;24.60;70.10;;;;;;4364138;32;20178;-73
2021/08/18 00:55:36;;;;;;;30.73;14.15;;;24.50;72.50;;;;;;4377799;32;20174;-73
2021/08/18 00:58:03;;;;;;;28.77;13.98;;;24.40;72.70;;;;;;4363679;32;20175;-73
2021/08/18 01:00:29;;;;;;;27.65;13.50;;;24.40;73.10;;;;;;4351707;32;20094;-72
2021/08/18 01:02:57;;;;;;;22.70;11.93;;;24.40;74.90;;;;;;4351414;32;20162;-72
2021/08/18 01:05:28;;;;;;;29.63;13.62;;;24.40;81.00;;;;;;4363634;32;20089;-73
2021/08/18 01:07:56;;;;;;;27.15;12.82;;;24.30;85.00;;;;;;4351525;32;20097;-72
2021/08/18 01:10:25;;;;;;;27.35;16.10;;;24.30;90.90;;;;;;4351533;32;20169;-72
2021/08/18 01:12:53;;;;;;;26.17;13.82;;;24.30;88.20;;;;;;4351206;32;20085;-72
2021/08/18 01:15:20;;;;;;;27.62;15.90;;;24.20;91.80;;;;;;4351490;32;20073;-72
2021/08/18 01:17:49;;;;;;;28.08;15.23;;;24.20;90.90;;;;;;4339045;32;20090;-72
2021/08/18 01:20:18;;;;;;;27.62;14.82;;;24.20;91.00;;;;;;4351086;32;20082;-72
2021/08/18 01:22:44;;;;;;;29.10;15.23;;;23.90;99.90;;;;;;4351516;32;20077;-73
2021/08/18 01:25:11;;;;;;;26.62;14.85;;;23.70;99.90;;;;;;4350686;32;20074;-73
2021/08/18 01:27:47;;;;;;;30.65;14.35;;;23.70;99.90;;;;;;4338205;32;20594;-72
2021/08/18 01:30:14;;;;;;;26.85;15.20;;;23.80;99.90;;;;;;4340117;32;20181;-72
2021/08/18 01:32:51;;;;;;;28.95;14.52;;;23.80;99.90;;;;;;4351320;32;20157;-73
2021/08/18 01:35:42;;;;;;;36.40;15.57;;;23.90;99.90;;;;;;4363577;32;20078;-73
2021/08/18 01:38:10;;;;;;;34.05;15.00;;;23.80;99.90;;;;;;4351202;32;20089;-72
2021/08/18 01:40:37;;;;;;;28.87;14.80;;;23.80;99.90;;;;;;4363740;32;20074;-72
2021/08/18 01:43:03;;;;;;;33.08;16.48;;;23.90;99.90;;;;;;4363333;32;20097;-72
2021/08/18 01:45:32;;;;;;;34.65;18.30;;;23.80;99.90;;;;;;4363562;32;20097;-72
2021/08/18 01:47:58;;;;;;;35.55;17.25;;;23.80;98.00;;;;;;4335633;32;20159;-72
2021/08/18 01:50:25;;;;;;;30.15;14.87;;;23.80;99.90;;;;;;4323994;32;20672;-73
2021/08/18 01:52:54;;;;;;;30.75;15.18;;;23.80;99.90;;;;;;4324275;32;20063;-72
2021/08/18 01:55:21;;;;;;;35.20;16.33;;;23.70;99.90;;;;;;4348381;32;20082;-72
2021/08/18 01:57:47;;;;;;;32.00;15.73;;;23.80;99.90;;;;;;4335611;32;20078;-73
2021/08/18 02:00:15;;;;;;;34.05;16.10;;;23.80;99.90;;;;;;4336432;32;20071;-72
2021/08/18 02:02:41;;;;;;;29.48;15.10;;;23.80;99.90;;;;;;4335716;32;20105;-72
2021/08/18 02:05:09;;;;;;;26.08;15.23;;;23.90;99.90;;;;;;4335881;32;20179;-73
2021/08/18 02:07:36;;;;;;;27.13;15.05;;;24.00;99.90;;;;;;4347793;32;20074;-73
2021/08/18 02:10:05;;;;;;;32.47;15.73;;;24.00;99.90;;;;;;4348085;32;20082;-72
2021/08/18 02:12:33;;;;;;;28.17;14.75;;;24.00;99.90;;;;;;4323554;32;20477;-72
2021/08/18 02:14:59;;;;;;;27.92;15.02;;;24.00;99.90;;;;;;4336014;32;20176;-72
2021/08/18 02:17:26;;;;;;;29.60;14.07;;;24.00;99.90;;;;;;4335645;32;20228;-72
2021/08/18 02:19:52;;;;;;;28.98;13.82;;;24.00;99.90;;;;;;4335694;32;20071;-72
2021/08/18 02:22:18;;;;;;;32.95;14.82;;;24.00;99.90;;;;;;4335341;32;20457;-73
2021/08/18 02:24:44;;;;;;;24.73;13.25;;;24.00;99.90;;;;;;4347841;32;20099;-72
2021/08/18 02:27:10;;;;;;;31.00;14.50;;;24.10;99.30;;;;;;4335253;32;20074;-72
2021/08/18 02:29:36;;;;;;;24.42;13.65;;;24.20;97.40;;;;;;4335563;32;20089;-73
2021/08/18 02:32:03;;;;;;;30.25;14.90;;;24.20;97.20;;;;;;4361440;32;20070;-73
2021/08/18 02:34:29;;;;;;;30.30;16.25;;;24.20;95.70;;;;;;4335299;32;20083;-73
2021/08/18 02:36:55;;;;;;;30.37;15.80;;;24.30;94.30;;;;;;4347658;32;20076;-73
2021/08/18 02:39:21;;;;;;;26.25;14.98;;;24.30;94.20;;;;;;4335494;32;20094;-72
2021/08/18 02:41:47;;;;;;;29.85;14.40;;;24.30;93.90;;;;;;4347357;32;20082;-73
2021/08/18 02:44:14;;;;;;;27.83;14.02;;;24.30;95.00;;;;;;4335250;32;20067;-72
2021/08/18 02:46:40;;;;;;;27.65;14.35;;;24.30;95.80;;;;;;4335699;32;20106;-72
2021/08/18 02:49:06;;;;;;;29.45;14.77;;;24.30;95.90;;;;;;4362142;32;20077;-72
2021/08/18 02:51:32;;;;;;;27.35;14.20;;;24.40;94.30;;;;;;4376185;32;20520;-72
2021/08/18 02:53:59;;;;;;;31.77;15.20;;;24.40;94.50;;;;;;4350105;32;20222;-72
2021/08/18 02:56:25;;;;;;;28.90;14.60;;;24.40;95.60;;;;;;4350210;32;20464;-72
2021/08/18 02:58:51;;;;;;;27.80;14.55;;;24.40;95.00;;;;;;4349702;32;20083;-72
2021/08/18 03:01:17;;;;;;;28.38;14.50;;;24.40;92.40;;;;;;4349930;32;20090;-72
2021/08/18 03:03:44;;;;;;;31.15;14.98;;;24.30;94.30;;;;;;4362145;32;20453;-72
2021/08/18 03:06:10;;;;;;;29.23;15.15;;;24.20;92.50;;;;;;4337844;32;20077;-72
2021/08/18 03:08:36;;;;;;;31.33;15.05;;;24.20;89.10;;;;;;4362551;32;20090;-72
2021/08/18 03:11:02;;;;;;;27.20;14.02;;;24.30;85.20;;;;;;4365528;32;20097;-72
2021/08/18 03:13:29;;;;;;;31.80;15.43;;;24.40;82.80;;;;;;4365763;32;20078;-72
2021/08/18 03:15:56;;;;;;;31.17;15.05;;;24.40;79.50;;;;;;4365432;32;20107;-72
2021/08/18 03:18:22;;;;;;;30.15;14.85;;;24.40;77.90;;;;;;4365145;32;20088;-72
2021/08/18 03:20:48;;;;;;;30.77;14.77;;;24.50;76.30;;;;;;4328295;32;20077;-72
2021/08/18 03:23:14;;;;;;;28.67;15.15;;;24.70;72.60;;;;;;4352628;32;20473;-73
2021/08/18 03:25:40;;;;;;;35.10;15.85;;;24.80;69.20;;;;;;4352610;32;20077;-72
2021/08/18 03:28:07;;;;;;;27.83;14.93;;;24.90;67.10;;;;;;4364849;32;20093;-72
2021/08/18 03:30:33;;;;;;;28.42;15.00;;;24.90;64.60;;;;;;4353236;32;20084;-73
2021/08/18 03:32:59;;;;;;;26.35;14.93;;;25.00;64.10;;;;;;4365478;32;20073;-72
2021/08/18 03:35:25;;;;;;;30.95;15.18;;;25.10;60.40;;;;;;4364861;32;20085;-73
2021/08/18 03:37:52;;;;;;;30.80;14.85;;;25.10;62.20;;;;;;4365349;32;20084;-72
2021/08/18 03:40:18;;;;;;;33.92;15.80;;;25.20;58.90;;;;;;4352626;32;20072;-72
2021/08/18 03:42:44;;;;;;;27.80;14.00;;;25.20;58.40;;;;;;4364869;32;20066;-72
2021/08/18 03:45:12;;;;;;;27.17;13.93;;;25.30;57.10;;;;;;4352626;32;20156;-72
2021/08/18 03:47:38;;;;;;;30.00;15.45;;;25.40;56.40;;;;;;4340014;32;20078;-73
2021/08/18 03:50:07;;;;;;;28.58;15.02;;;25.60;54.70;;;;;;4352558;32;20514;-71
2021/08/18 03:52:36;;;;;;;28.30;14.75;;;25.70;53.90;;;;;;4328411;32;20076;-74
2021/08/18 03:55:03;;;;;;;28.67;14.30;;;25.70;54.10;;;;;;4328635;32;20084;-72
2021/08/18 03:57:29;;;;;;;28.30;13.95;;;25.80;54.00;;;;;;4364764;32;20166;-72
2021/08/18 03:59:55;;;;;;;26.77;13.93;;;25.90;53.60;;;;;;4352144;32;20464;-72
2021/08/18 04:02:21;;;;;;;28.15;13.68;;;26.00;52.90;;;;;;4364313;32;20624;-73
2021/08/18 04:04:47;;;;;;;27.15;12.90;;;26.00;52.30;;;;;;4364529;32;20076;-72
2021/08/18 04:07:14;;;;;;;26.27;13.68;;;26.10;52.20;;;;;;4339637;32;20082;-73
2021/08/18 04:09:40;;;;;;;23.62;13.75;;;26.20;51.20;;;;;;4364331;32;20088;-73
2021/08/18 04:12:06;;;;;;;29.05;14.00;;;26.30;51.00;;;;;;4364632;32;20085;-72
2021/08/18 04:14:33;;;;;;;26.87;13.13;;;26.30;51.00;;;;;;4364198;32;20112;-72
2021/08/18 04:16:59;;;;;;;29.85;14.63;;;26.30;51.40;;;;;;4351916;32;20088;-73
2021/08/18 04:19:25;;;;;;;24.95;13.40;;;26.50;50.80;;;;;;4377860;32;20074;-72
2021/08/18 04:21:51;;;;;;;30.70;14.32;;;26.50;50.00;;;;;;4377997;32;20077;-73
2021/08/18 04:24:18;;;;;;;24.20;13.13;;;26.60;49.70;;;;;;4364060;32;20163;-73
2021/08/18 04:26:44;;;;;;;33.85;15.68;;;26.60;49.80;;;;;;4364371;32;20082;-73
2021/08/18 04:29:10;;;;;;;36.95;15.60;;;26.70;48.90;;;;;;4378063;32;20165;-73
2021/08/18 04:31:36;;;;;;;32.63;16.35;;;26.60;49.20;;;;;;4352114;32;20165;-72
2021/08/18 04:34:02;;;;;;;32.75;16.10;;;26.70;49.10;;;;;;4339121;32;20077;-72
2021/08/18 04:36:28;;;;;;;37.50;16.92;;;26.80;49.30;;;;;;4314957;32;20089;-72
2021/08/18 04:38:55;;;;;;;37.33;17.83;;;26.80;49.20;;;;;;4339319;32;20123;-72
2021/08/18 04:41:21;;;;;;;34.70;15.07;;;26.90;49.50;;;;;;4363925;32;20113;-72
2021/08/18 04:43:47;;;;;;;50.28;20.58;;;27.10;48.90;;;;;;4351706;32;20066;-72
2021/08/18 04:46:13;;;;;;;50.72;22.77;;;27.20;47.70;;;;;;4351462;32;20093;-73
2021/08/18 04:48:39;;;;;;;45.90;21.00;;;27.30;46.80;;;;;;4351062;32;20082;-73
2021/08/18 04:51:05;;;;;;;39.88;17.62;;;28.60;44.40;;;;;;4351290;32;20093;-74
2021/08/18 04:53:32;;;;;;;37.08;18.05;;;29.80;40.00;;;;;;4339085;32;20081;-72
2021/08/18 04:55:58;;;;;;;35.22;16.12;;;30.60;37.60;;;;;;4339265;32;20112;-73
2021/08/18 04:58:24;;;;;;;32.58;14.90;;;30.50;36.90;;;;;;4363579;32;20074;-72
2021/08/18 05:00:50;;;;;;;30.80;14.82;;;30.80;36.50;;;;;;4351564;32;20093;-72
2021/08/18 05:03:17;;;;;;;30.77;14.82;;;30.20;36.80;;;;;;4326925;32;20226;-72
2021/08/18 05:05:43;;;;;;;29.50;15.20;;;30.40;36.50;;;;;;4363815;32;20077;-72
2021/08/18 05:08:09;;;;;;;31.30;15.73;;;30.80;35.20;;;;;;4326492;32;20089;-72
2021/08/18 05:10:36;;;;;;;31.73;14.13;;;30.70;35.30;;;;;;4351647;32;20159;-73
2021/08/18 05:13:02;;;;;;;27.58;14.70;;;30.50;36.70;;;;;;4327372;32;20105;-73
2021/08/18 05:15:28;;;;;;;31.62;15.23;;;30.30;36.90;;;;;;4351617;32;20081;-72
2021/08/18 05:17:55;;;;;;;30.30;15.23;;;30.70;37.20;;;;;;4350903;32;20149;-69
2021/08/18 05:20:21;;;;;;;26.25;14.25;;;30.80;36.40;;;;;;4338637;32;20195;-70
2021/08/18 05:22:48;;;;;;;25.37;13.05;;;30.60;37.10;;;;;;4350453;32;20617;-70
2021/08/18 05:25:15;;;;;;;27.73;13.20;;;30.70;36.60;;;;;;4339035;32;20562;-72
2021/08/18 05:27:42;;;;;;;28.08;13.10;;;30.90;36.70;;;;;;4326722;32;20083;-73
2021/08/18 05:30:10;;;;;;;26.02;13.55;;;31.60;35.00;;;;;;4363309;32;20444;-73
2021/08/18 05:32:40;;;;;;;23.95;12.95;;;32.20;34.20;;;;;;4350168;32;20515;-73
2021/08/18 05:35:09;;;;;;;26.90;13.18;;;31.40;35.00;;;;;;4351252;32;20090;-74
2021/08/18 05:37:36;;;;;;;22.30;11.88;;;31.30;35.50;;;;;;4351991;32;20158;-73
2021/08/18 05:40:03;;;;;;;21.00;10.30;;;31.20;36.10;;;;;;4351243;32;20178;-74
2021/08/18 05:42:30;;;;;;;19.33;10.90;;;31.70;35.10;;;;;;4338672;32;20078;-72
2021/08/18 05:44:56;;;;;;;24.33;11.23;;;31.60;36.00;;;;;;4350729;32;20145;-73
2021/08/18 05:47:22;;;;;;;21.77;11.57;;;32.30;34.80;;;;;;4376701;32;20108;-72
2021/08/18 05:49:49;;;;;;;24.40;12.02;;;32.50;33.90;;;;;;4351000;32;20078;-72
2021/08/18 05:52:15;;;;;;;22.62;11.32;;;32.30;34.00;;;;;;4363382;32;20073;-73
2021/08/18 05:54:42;;;;;;;21.75;11.52;;;32.30;33.90;;;;;;4351045;32;20078;-72
2021/08/18 05:57:08;;;;;;;24.05;10.55;;;32.30;34.40;;;;;;4376886;32;20070;-72
2021/08/18 05:59:34;;;;;;;18.10;10.70;;;32.10;33.30;;;;;;4350536;32;20090;-70
2021/08/18 06:02:00;;;;;;;21.30;11.25;;;32.80;31.90;;;;;;4362437;32;20061;-69
2021/08/18 06:04:26;;;;;;;20.00;11.18;;;32.60;33.20;;;;;;4350355;32;20089;-69
2021/08/18 06:06:54;;;;;;;21.37;11.45;;;32.90;31.90;;;;;;4364692;32;20084;-70
2021/08/18 06:09:21;;;;;;;23.27;11.10;;;32.10;33.20;;;;;;4364066;32;20501;-70
2021/08/18 06:11:47;;;;;;;19.75;10.27;;;32.20;33.20;;;;;;4338091;32;20081;-69
2021/08/18 06:14:13;;;;;;;20.62;10.70;;;32.80;32.80;;;;;;4363448;32;20571;-68
2021/08/18 06:16:40;;;;;;;21.15;10.50;;;32.80;31.90;;;;;;4363954;32;20078;-69
2021/08/18 06:19:06;;;;;;;20.60;11.32;;;33.30;31.90;;;;;;4363612;32;20074;-69
2021/08/18 06:21:32;;;;;;;17.10;9.77;;;32.80;32.40;;;;;;4327087;32;20070;-67
2021/08/18 06:24:14;;;;;;;17.48;10.93;;;33.30;31.30;;;;;;4338692;32;20062;-67
2021/08/18 06:26:41;;;;;;;19.42;11.02;;;32.30;32.20;;;;;;4343247;32;20548;-71
2021/08/18 06:29:07;;;;;;;23.05;10.73;;;31.20;34.80;;;;;;4350252;32;20082;-69
2021/08/18 06:31:34;;;;;;;17.83;9.25;;;31.50;35.60;;;;;;4376043;32;20155;-68
2021/08/18 06:34:00;;;;;;;19.05;10.43;;;31.40;36.90;;;;;;4350442;32;20066;-69
2021/08/18 06:36:27;;;;;;;16.65;10.02;;;31.30;37.00;;;;;;4325809;32;20093;-68
2021/08/18 06:38:53;;;;;;;19.73;11.05;;;31.10;37.60;;;;;;4362212;32;20168;-69
2021/08/18 06:41:19;;;;;;;18.08;9.73;;;31.30;37.90;;;;;;4376202;32;20069;-68
2021/08/18 06:43:45;;;;;;;22.48;10.70;;;31.30;36.80;;;;;;4362560;32;20074;-67
2021/08/18 06:46:11;;;;;;;19.77;11.23;;;31.30;36.60;;;;;;4337799;32;20073;-69
2021/08/18 06:48:38;;;;;;;17.98;10.55;;;31.30;37.50;;;;;;4375822;32;20086;-70
2021/08/18 06:51:04;;;;;;;20.70;10.95;;;31.10;36.60;;;;;;4362355;32;20081;-70
2021/08/18 06:53:31;;;;;;;20.27;10.70;;;31.40;36.90;;;;;;4337413;32;20537;-69
2021/08/18 06:55:58;;;;;;;18.35;10.20;;;31.40;37.10;;;;;;4326380;32;20074;-68
2021/08/18 06:58:24;;;;;;;16.67;9.50;;;31.40;36.70;;;;;;4362523;32;20073;-72
2021/08/18 07:00:50;;;;;;;17.10;9.20;;;31.40;34.60;;;;;;4331037;32;20077;-73
2021/08/18 07:03:17;;;;;;;18.02;9.75;;;31.40;34.60;;;;;;4356670;32;20078;-76
2021/08/18 07:05:43;;;;;;;16.33;9.85;;;31.30;35.00;;;;;;4343554;32;20072;-71
2021/08/18 07:08:09;;;;;;;22.95;10.52;;;31.50;32.90;;;;;;4335962;32;20151;-69
2021/08/18 07:10:35;;;;;;;20.92;10.23;;;31.30;34.90;;;;;;4344238;32;20081;-71
2021/08/18 07:13:01;;;;;;;13.70;8.27;;;31.90;32.00;;;;;;4353018;32;20145;-71
2021/08/18 07:15:27;;;;;;;16.20;8.70;;;32.00;32.90;;;;;;4335094;32;20078;-74
2021/08/18 07:17:54;;;;;;;15.88;9.02;;;31.90;33.00;;;;;;4341901;32;20106;-73
2021/08/18 07:20:20;;;;;;;17.37;9.07;;;32.00;32.70;;;;;;4348726;32;20105;-70
2021/08/18 07:22:46;;;;;;;16.30;8.60;;;32.30;31.90;;;;;;4367259;32;20185;-73
2021/08/18 07:25:12;;;;;;;15.70;8.93;;;31.90;31.00;;;;;;4339683;32;20074;-72
2021/08/18 07:27:39;;;;;;;14.43;8.63;;;32.00;30.50;;;;;;4341891;32;20071;-70
2021/08/18 07:30:06;;;;;;;13.98;8.15;;;31.90;30.40;;;;;;4323506;32;20071;-70
2021/08/18 07:32:32;;;;;;;17.83;8.95;;;32.00;31.30;;;;;;4330476;32;20161;-70
2021/08/18 07:34:58;;;;;;;16.50;8.68;;;31.90;30.60;;;;;;4350612;32;20081;-69
2021/08/18 07:37:27;;;;;;;17.33;9.25;;;31.90;30.90;;;;;;4352446;32;20081;-70
2021/08/18 07:39:54;;;;;;;15.32;8.80;;;32.40;30.10;;;;;;4346935;32;20170;-72
2021/08/18 07:42:21;;;;;;;13.90;8.27;;;32.10;29.50;;;;;;4329420;32;20103;-74
2021/08/18 07:44:47;;;;;;;15.70;8.65;;;31.90;29.10;;;;;;4350153;32;20090;-73
2021/08/18 07:47:13;;;;;;;15.30;8.50;;;32.20;29.60;;;;;;4348824;32;20093;-71
2021/08/18 07:49:39;;;;;;;13.95;8.48;;;32.40;29.10;;;;;;4342346;32;20191;-70
2021/08/18 07:52:06;;;;;;;14.95;8.05;;;32.10;28.50;;;;;;4341365;33;20094;-72
2021/08/18 07:54:33;;;;;;;15.10;8.50;;;32.00;28.50;;;;;;4330669;32;20180;-75
2021/08/18 07:57:00;;;;;;;15.55;9.70;;;32.40;28.80;;;;;;4345227;32;20082;-73
2021/08/18 07:59:26;;;;;;;18.67;8.90;;;32.30;28.10;;;;;;4344963;32;20215;-73
2021/08/18 08:01:52;;;;;;;16.52;9.25;;;32.30;26.50;;;;;;4350924;32;20166;-72
2021/08/18 08:04:18;;;;;;;16.90;9.98;;;32.30;27.40;;;;;;4324428;32;20074;-70
2021/08/18 08:06:45;;;;;;;14.27;8.60;;;32.40;27.40;;;;;;4334149;32;20075;-73
2021/08/18 08:09:11;;;;;;;16.55;8.93;;;32.20;27.30;;;;;;4360748;32;20525;-72
2021/08/18 08:11:38;;;;;;;16.75;8.77;;;32.50;27.60;;;;;;4333635;33;20102;-72
2021/08/18 08:14:04;;;;;;;17.05;8.98;;;32.20;27.80;;;;;;4353817;32;20194;-74
2021/08/18 08:16:30;;;;;;;16.85;9.45;;;32.50;27.80;;;;;;4347863;32;20102;-75
2021/08/18 08:18:56;;;;;;;14.50;8.48;;;32.50;27.50;;;;;;4332555;32;20077;-76
2021/08/18 08:21:24;;;;;;;16.00;8.90;;;33.10;27.10;;;;;;4348012;32;20093;-75
2021/08/18 08:23:51;;;;;;;15.70;8.63;;;32.80;26.30;;;;;;4347110;32;20153;-76
2021/08/18 08:26:17;;;;;;;14.05;8.90;;;32.40;26.90;;;;;;4348425;32;20102;-76
2021/08/18 08:28:43;;;;;;;15.60;10.15;;;32.50;26.90;;;;;;4334875;32;20097;-72
2021/08/18 08:31:10;;;;;;;15.70;8.60;;;32.60;27.50;;;;;;4348092;32;20143;-73
2021/08/18 08:33:36;;;;;;;20.37;9.18;;;32.50;27.10;;;;;;4342077;32;20077;-75
2021/08/18 08:36:02;;;;;;;16.08;8.35;;;32.60;27.10;;;;;;4335876;32;20066;-76
2021/08/18 08:38:29;;;;;;;14.43;9.48;;;32.50;26.90;;;;;;4334813;32;20183;-75
2021/08/18 08:40:55;;;;;;;17.30;9.00;;;33.00;26.60;;;;;;4326438;32;20461;-71
2021/08/18 08:43:24;;;;;;;12.93;7.53;;;32.70;26.20;;;;;;4359785;32;20109;-74
2021/08/18 08:45:50;;;;;;;13.95;8.35;;;32.40;26.90;;;;;;4337381;33;20075;-76
2021/08/18 08:48:18;;;;;;;15.02;8.57;;;32.50;27.10;;;;;;4340962;32;20093;-71
2021/08/18 08:50:46;;;;;;;14.52;8.63;;;33.00;26.30;;;;;;4337423;32;20082;-67
2021/08/18 08:53:12;;;;;;;14.75;9.57;;;32.90;25.80;;;;;;4336651;32;20089;-67
2021/08/18 08:55:40;;;;;;;16.05;8.82;;;32.90;26.10;;;;;;4335922;32;20516;-71
2021/08/18 08:58:06;;;;;;;17.55;9.23;;;32.80;25.60;;;;;;4355120;32;20082;-70
2021/08/18 09:00:32;;;;;;;18.70;9.20;;;33.10;25.60;;;;;;4344374;32;20160;-74
2021/08/18 09:03:12;;;;;;;15.98;9.15;;;32.90;26.10;;;;;;4367481;32;20091;-76
2021/08/18 09:05:39;;;;;;;15.70;8.68;;;33.00;26.20;;;;;;4351200;32;20090;-74
2021/08/18 09:08:13;;;;;;;17.67;9.07;;;33.00;25.80;;;;;;4337537;32;20155;-74
2021/08/18 09:10:39;;;;;;;17.00;9.73;;;32.70;25.20;;;;;;4349280;32;20123;-72
2021/08/18 09:13:17;;;;;;;19.77;8.93;;;32.90;25.30;;;;;;4350647;32;20121;-71
2021/08/18 09:15:44;;;;;;;17.30;8.48;;;33.40;25.90;;;;;;4355944;32;20595;-67
2021/08/18 09:18:10;;;;;;;19.65;9.82;;;33.80;25.30;;;;;;4342254;32;20081;-71
2021/08/18 09:20:41;;;;;;;18.98;8.95;;;33.30;26.20;;;;;;4347150;32;20163;-73
2021/08/18 09:23:11;;;;;;;21.20;9.32;;;33.10;25.60;;;;;;4333855;32;20182;-74
2021/08/18 09:25:42;;;;;;;15.90;8.80;;;33.10;25.60;;;;;;4335295;32;20101;-72
2021/08/18 09:28:08;;;;;;;15.15;9.20;;;33.70;26.30;;;;;;4348354;32;20074;-71
2021/08/18 09:30:37;;;;;;;15.05;8.75;;;33.50;26.10;;;;;;4367263;32;20183;-70
2021/08/18 09:33:19;;;;;;;13.50;7.57;;;33.30;26.40;;;;;;4339797;32;20102;-71
2021/08/18 09:35:54;;;;;;;16.30;8.20;;;33.10;26.50;;;;;;4346760;32;20093;-69
2021/08/18 09:38:21;;;;;;;13.75;8.60;;;33.10;26.70;;;;;;4337159;32;20110;-70
2021/08/18 09:40:49;;;;;;;13.98;8.68;;;33.40;26.90;;;;;;4345518;32;20070;-71
2021/08/18 09:43:17;;;;;;;13.75;8.07;;;33.90;26.50;;;;;;4346502;32;20075;-70
2021/08/18 09:45:46;;;;;;;14.95;8.25;;;34.00;26.30;;;;;;4333380;32;20143;-69
2021/08/18 09:48:17;;;;;;;14.77;8.77;;;33.30;27.50;;;;;;4349292;32;20165;-69
2021/08/18 09:50:59;;;;;;;13.32;7.65;;;33.20;27.20;;;;;;4330347;32;20134;-68
2021/08/18 09:53:34;;;;;;;14.85;8.95;;;33.60;26.90;;;;;;4337885;32;20113;-69
2021/08/18 09:56:05;;;;;;;12.02;7.68;;;33.10;27.70;;;;;;4354275;32;20070;-68
2021/08/18 09:58:55;;;;;;;13.55;7.45;;;33.20;29.20;;;;;;4346868;32;20708;-68
2021/08/18 10:01:22;;;;;;;16.90;7.70;;;33.70;27.20;;;;;;4340587;32;20094;-66
2021/08/18 10:03:50;;;;;;;11.43;6.37;;;33.80;27.30;;;;;;4348431;32;20097;-70
2021/08/18 10:06:17;;;;;;;11.95;7.50;;;33.20;28.20;;;;;;4346801;32;20074;-68
2021/08/18 10:08:45;;;;;;;12.13;6.75;;;33.50;28.00;;;;;;4369650;32;20077;-71
2021/08/18 10:11:13;;;;;;;13.62;7.43;;;34.10;27.60;;;;;;4326819;32;20070;-75
2021/08/18 10:13:40;;;;;;;10.65;7.25;;;33.70;27.70;;;;;;4323325;32;20101;-72
2021/08/18 10:16:08;;;;;;;13.98;7.25;;;33.30;28.20;;;;;;4343861;32;20086;-74
2021/08/18 10:18:46;;;;;;;10.90;6.40;;;33.10;29.30;;;;;;4343244;32;20065;-75
2021/08/18 10:21:21;;;;;;;13.05;6.37;;;33.30;29.00;;;;;;4356719;32;20070;-72
2021/08/18 10:23:58;;;;;;;;;;;33.40;29.10;;;;;;4357248;32;20121;-70
2021/08/18 10:26:48;;;;;;;10.85;6.40;;;33.30;28.70;;;;;;4346633;32;20068;-70
2021/08/18 10:29:30;;;;;;;10.20;6.47;;;33.70;28.50;;;;;;4334132;32;20128;-70
2021/08/18 10:32:01;;;;;;;11.00;6.65;;;34.10;28.00;;;;;;4348078;32;20175;-71
2021/08/18 10:34:40;;;;;;;10.40;6.20;;;34.60;27.30;;;;;;4323985;32;20105;-71
2021/08/18 10:37:13;;;;;;;11.10;6.45;;;34.20;27.50;;;;;;4361769;32;20519;-72
2021/08/18 10:39:51;;;;;;;12.00;6.43;;;33.50;28.90;;;;;;4360973;32;20090;-72
2021/08/18 10:42:40;;;;;;;10.85;5.93;;;33.30;28.70;;;;;;4338785;32;20074;-72
2021/08/18 10:45:20;;;;;;;12.02;6.12;;;33.70;28.90;;;;;;4362269;32;20079;-72
2021/08/18 10:47:46;;;;;;;12.45;6.03;;;34.10;28.30;;;;;;4361486;32;20066;-73
2021/08/18 10:50:12;;;;;;;9.80;6.00;;;34.10;28.70;;;;;;4348992;32;20161;-72
2021/08/18 10:52:41;;;;;;;10.30;6.18;;;34.10;28.40;;;;;;4360648;32;20541;-70
2021/08/18 10:55:23;;;;;;;7.85;5.40;;;34.30;27.90;;;;;;4360956;32;20101;-72
2021/08/18 10:57:53;;;;;;;10.18;5.47;;;34.00;27.20;;;;;;4347802;32;20082;-72
2021/08/18 11:00:41;;;;;;;8.15;5.78;;;34.70;27.40;;;;;;4335307;32;20166;-72
2021/08/18 11:03:14;;;;;;;9.63;6.15;;;34.60;26.50;;;;;;4334896;32;20181;-72
2021/08/18 11:05:50;;;;;;;8.88;5.68;;;33.80;26.70;;;;;;4347262;32;20086;-72
2021/08/18 11:08:21;;;;;;;7.40;5.40;;;34.10;27.10;;;;;;4335709;32;20070;-71
2021/08/18 11:10:53;;;;;;;9.23;5.75;;;34.50;26.80;;;;;;4322828;32;20157;-72
2021/08/18 11:13:46;;;;;;;9.18;5.68;;;35.20;25.50;;;;;;4347136;32;20099;-71
2021/08/18 11:16:24;;;;;;;8.13;5.00;;;34.70;25.70;;;;;;4323801;32;20090;-72
2021/08/18 11:19:07;;;;;;;10.02;6.00;;;35.00;25.60;;;;;;4335273;32;20497;-71
2021/08/18 11:21:35;;;;;;;10.02;6.10;;;34.90;25.60;;;;;;4345643;32;20074;-73
2021/08/18 11:24:07;;;;;;;7.40;5.30;;;34.90;25.50;;;;;;4337917;32;20075;-72
2021/08/18 11:26:36;;;;;;;8.18;5.68;;;35.10;25.40;;;;;;4337846;32;20157;-71
2021/08/18 11:29:13;;;;;;;10.23;5.68;;;35.10;24.50;;;;;;4349856;32;20164;-71
2021/08/18 11:31:50;;;;;;;9.18;5.72;;;34.70;25.60;;;;;;4328510;32;20086;-72
2021/08/18 11:34:28;;;;;;;10.38;6.43;;;34.60;26.10;;;;;;4328674;32;20080;-72
2021/08/18 11:37:05;;;;;;;9.48;5.93;;;34.70;26.10;;;;;;4340210;32;20085;-72
2021/08/18 11:39:34;;;;;;;13.52;6.10;;;34.50;26.40;;;;;;4352759;32;20244;-72
2021/08/18 11:42:08;;;;;;;9.82;6.32;;;34.40;26.30;;;;;;4340660;32;20089;-71
2021/08/18 11:44:34;;;;;;;9.45;5.65;;;34.40;26.60;;;;;;4341683;32;20094;-72
2021/08/18 11:47:15;;;;;;;10.02;5.55;;;34.50;26.80;;;;;;4351086;32;20066;-72
2021/08/18 11:49:43;;;;;;;8.32;5.87;;;34.30;27.10;;;;;;4343382;32;20085;-72
2021/08/18 11:52:16;;;;;;;8.73;6.10;;;34.30;27.90;;;;;;4337729;32;20071;-72
2021/08/18 11:54:45;;;;;;;11.45;5.57;;;34.70;26.70;;;;;;4337837;32;20523;-72
2021/08/18 11:57:11;;;;;;;10.63;6.03;;;34.90;26.70;;;;;;4343878;32;20109;-62
2021/08/18 11:59:37;;;;;;;7.80;6.15;;;35.30;27.10;;;;;;4366282;32;20077;-65
2021/08/18 12:02:04;;;;;;;7.35;5.35;;;34.80;28.40;;;;;;4359995;32;20085;-65
2021/08/18 12:04:31;;;;;;;8.73;5.53;;;35.20;27.10;;;;;;4341510;32;20105;-68
2021/08/18 12:07:13;;;;;;;8.40;5.75;;;34.50;27.70;;;;;;4338992;32;20113;-65
2021/08/18 12:09:41;;;;;;;8.45;5.22;;;34.30;28.00;;;;;;4361533;32;20150;-63
2021/08/18 12:12:10;;;;;;;11.48;6.22;;;34.60;28.40;;;;;;4349965;32;20075;-69
2021/08/18 12:14:43;;;;;;;8.48;5.60;;;34.20;27.80;;;;;;4331562;32;20122;-63
2021/08/18 12:17:09;;;;;;;10.27;6.10;;;34.30;28.40;;;;;;4354515;32;20077;-65
2021/08/18 12:19:46;;;;;;;9.30;6.30;;;34.30;27.70;;;;;;4335076;32;20177;-65
2021/08/18 12:22:17;;;;;;;8.80;6.28;;;34.30;28.10;;;;;;4355515;32;20078;-64
2021/08/18 12:24:50;;;;;;;11.52;6.07;;;34.40;28.10;;;;;;4372980;32;20086;-64
2021/08/18 12:27:22;;;;;;;11.10;5.90;;;34.70;27.50;;;;;;4320463;32;20090;-66
2021/08/18 12:30:19;;;;;;;9.23;6.18;;;34.50;28.60;;;;;;4322815;32;20159;-65
2021/08/18 12:32:45;;;;;;;;;;;34.50;28.10;;;;;;4359954;32;20109;-62
2021/08/18 12:35:11;;;;;;;8.25;5.37;;;34.50;28.00;;;;;;4368646;32;20381;-65
2021/08/18 12:37:39;;;;;;;9.52;5.72;;;35.00;28.10;;;;;;4319998;32;20185;-67
2021/08/18 12:40:11;;;;;;;8.73;6.50;;;34.80;27.10;;;;;;4346508;32;20102;-68